Aérodrome :
LOGIN :

S'inscrire | Disclaimer

   EN    FR    IT 

 










Légende :    VFR   VFR Marginal   IFR   IFR Intensif   IFR Très Intensif
Visi : 
Plafond : 
>= 8 km
>= 3000ft
5 à 8 km
1000 à 3000 ft
1500m à 5 km
500 à 1000 ft
800 à 1500m
200 à 500 ft
< 800m
< 200 ft
Symboles :   Orages  Brouillard  Fortes neiges  Fortes précipitations  Vent > 20 kt
SIGMETs :   Divers  Orages  Givrage  Turbulence  Onde Orograph.  Cendres Volcan.







- Altitude de l'aérodrome : 3368 ft


LSGC - Les Eplatures

DERNIER METAR :
  • 141250Z AUTO 23010KT 9999 -SN BKN/// 00/M01 Q1003

METARs EXPIRÉS :
  • 141220Z AUTO 24013G23KT 9999 BKN011 00/M01 Q1004 RESN
  • 141150Z AUTO 24012KT 9999 -SN BKN/// 00/M01 Q1005
  • 141120Z AUTO 24014KT 3700 -SN BKN/// 01/M01 Q1005
  • 141050Z AUTO 24011KT 210V280 9999 -SN BKN/// 01/M00 Q1005
  • 141020Z AUTO 24011G21KT 9999 -SN BKN/// 01/00 Q1005

TAF TAF LSGC
Valide du 14 à 12h jusqu'au 14 à 21h UTC


141125Z 1412/1421 24015G25KT 4900 -SN BKN006
PROB40
TEMPO1416/1421 25020G35KT 0800 +TSSN BKN005CB
Pas de NOTAMs connus pour ce terrain.



MET'MAP, la Météo Aéronautique d'un coup d'oeil ! - Copyright ORBIFLY Décembre 2007 - Disclaimer

ORBIFLY MET'MAP TEAM :

Programmation & Développement : Alexandra Zaïnal
Conception & Développement : Baudouin d'Aumeries
Co-Programmation & Développement : Marc-Olivier Méhu
Soutien technique & logistique : Manuel Goepfert

Contact : metmap@orbifly.com




SOURCES & CREDITS :

   NOAA